createdAt,value
2022-11-30T00:01:09.651Z,98764.44
2022-11-30T00:03:36.249Z,98768.00
2022-11-30T00:06:06.195Z,98756.78
2022-11-30T00:08:32.826Z,98765.13
2022-11-30T00:10:59.703Z,98763.19
2022-11-30T00:13:26.332Z,98760.44
2022-11-30T00:15:52.975Z,98760.13
2022-11-30T00:18:19.586Z,98752.47
2022-11-30T00:20:46.256Z,98757.69
2022-11-30T00:23:12.875Z,98755.22
2022-11-30T00:25:39.503Z,98756.19
2022-11-30T00:28:06.137Z,98751.94
2022-11-30T00:30:32.833Z,98749.03
2022-11-30T00:32:59.544Z,98753.78
2022-11-30T00:35:26.455Z,98756.09
2022-11-30T00:37:53.091Z,98754.66
2022-11-30T00:40:19.787Z,98754.03
2022-11-30T00:42:46.434Z,98759.38
2022-11-30T00:45:13.184Z,98760.50
2022-11-30T00:47:39.965Z,98764.06
2022-11-30T00:50:07.327Z,98767.84
2022-11-30T00:52:33.935Z,98768.69
2022-11-30T00:55:03.876Z,98773.09
2022-11-30T00:57:30.960Z,98770.38
2022-11-30T00:59:57.561Z,98771.69
2022-11-30T01:02:24.293Z,98772.50
2022-11-30T01:04:50.998Z,98783.25
2022-11-30T01:07:17.636Z,98776.22
2022-11-30T01:09:44.325Z,98776.06
2022-11-30T01:12:10.939Z,98782.72
2022-11-30T01:14:37.534Z,98783.25
2022-11-30T01:17:04.402Z,98776.56
2022-11-30T01:19:31.039Z,98782.38
2022-11-30T01:21:57.652Z,98788.56
2022-11-30T01:24:24.382Z,98792.31
2022-11-30T01:26:51.002Z,98787.16
2022-11-30T01:29:17.636Z,98794.13
2022-11-30T01:31:44.327Z,98789.59
2022-11-30T01:34:10.929Z,98794.13
2022-11-30T01:36:38.977Z,98795.94
2022-11-30T01:39:09.319Z,98794.22
2022-11-30T01:41:39.200Z,98798.38
2022-11-30T01:44:09.003Z,98793.16
2022-11-30T01:46:39.364Z,98793.53
2022-11-30T01:49:15.942Z,98793.53
2022-11-30T01:51:48.149Z,98786.66
2022-11-30T01:54:17.538Z,98789.28
2022-11-30T01:56:50.854Z,98786.50
2022-11-30T01:59:20.885Z,98783.09
2022-11-30T02:01:47.747Z,98792.41
2022-11-30T02:04:31.710Z,98793.16
2022-11-30T02:06:59.890Z,98787.16
2022-11-30T02:09:27.553Z,98789.44
2022-11-30T02:11:54.312Z,98797.78
2022-11-30T02:14:33.743Z,98801.47
2022-11-30T02:17:18.621Z,98789.53
2022-11-30T02:20:00.818Z,98787.09
2022-11-30T02:23:01.724Z,98785.44
2022-11-30T02:25:50.328Z,98800.53
2022-11-30T02:28:42.879Z,98792.91
2022-11-30T02:31:16.748Z,98790.75
2022-11-30T02:33:45.389Z,98795.59
2022-11-30T02:36:12.398Z,98792.53
2022-11-30T02:38:40.263Z,98784.03
2022-11-30T02:41:06.939Z,98775.25
2022-11-30T02:43:34.912Z,98777.00
2022-11-30T02:46:15.585Z,98775.94
2022-11-30T02:49:12.709Z,98775.34
2022-11-30T02:51:42.731Z,98782.06
2022-11-30T02:54:09.909Z,98781.91
2022-11-30T02:56:36.519Z,98778.13
2022-11-30T02:59:03.229Z,98782.00
2022-11-30T03:01:30.063Z,98785.94
2022-11-30T03:03:56.743Z,98781.09
2022-11-30T03:06:23.484Z,98781.91
2022-11-30T03:08:50.466Z,98778.56
2022-11-30T03:11:17.116Z,98786.38
2022-11-30T03:13:43.739Z,98777.97
2022-11-30T03:16:12.563Z,98777.81
2022-11-30T03:18:40.237Z,98777.97
2022-11-30T03:21:09.058Z,98781.31
2022-11-30T03:23:35.787Z,98790.09
2022-11-30T03:26:03.364Z,98788.91
2022-11-30T03:28:30.370Z,98796.28
2022-11-30T03:30:57.733Z,98790.78
2022-11-30T03:33:25.352Z,98792.13
2022-11-30T03:36:02.562Z,98788.22
2022-11-30T03:38:29.473Z,98798.88
2022-11-30T03:41:02.847Z,98798.97
2022-11-30T03:43:29.580Z,98795.91
2022-11-30T03:45:56.239Z,98793.28
2022-11-30T03:48:23.741Z,98796.56
2022-11-30T03:50:50.632Z,98798.88
2022-11-30T03:53:18.311Z,98799.78
2022-11-30T03:55:45.118Z,98807.38
2022-11-30T03:58:12.299Z,98804.41
2022-11-30T04:00:39.413Z,98805.31
2022-11-30T04:03:06.160Z,98809.19
2022-11-30T04:05:32.867Z,98808.19
2022-11-30T04:07:59.653Z,98806.25
2022-11-30T04:10:26.517Z,98807.22
2022-11-30T04:12:53.794Z,98812.59
2022-11-30T04:15:20.470Z,98800.53
2022-11-30T04:17:47.085Z,98803.13
2022-11-30T04:20:13.788Z,98807.38
2022-11-30T04:22:40.522Z,98808.88
2022-11-30T04:25:07.865Z,98808.50
2022-11-30T04:27:34.458Z,98805.72
2022-11-30T04:30:02.373Z,98816.16
2022-11-30T04:32:28.967Z,98809.31
2022-11-30T04:34:55.613Z,98805.88
2022-11-30T04:37:22.256Z,98822.50
2022-11-30T04:39:48.924Z,98813.88
2022-11-30T04:42:15.822Z,98817.44
2022-11-30T04:44:42.436Z,98812.22
2022-11-30T04:47:09.072Z,98820.72
2022-11-30T04:49:35.781Z,98826.06
2022-11-30T04:52:02.479Z,98814.66
2022-11-30T04:54:29.135Z,98813.88
2022-11-30T04:56:55.967Z,98825.09
2022-11-30T04:59:22.623Z,98820.72
2022-11-30T05:01:49.372Z,98831.00
2022-11-30T05:04:16.158Z,98825.94
2022-11-30T05:06:42.939Z,98838.81
2022-11-30T05:09:09.840Z,98840.97
2022-11-30T05:11:36.637Z,98839.19
2022-11-30T05:14:03.324Z,98843.94
2022-11-30T05:16:30.029Z,98839.56
2022-11-30T05:18:56.758Z,98842.97
2022-11-30T05:21:23.368Z,98847.06
2022-11-30T05:23:50.014Z,98845.81
2022-11-30T05:26:16.750Z,98848.78
2022-11-30T05:28:43.362Z,98846.84
2022-11-30T05:31:10.036Z,98854.38
2022-11-30T05:33:36.761Z,98858.97
2022-11-30T05:36:10.158Z,98861.72
2022-11-30T05:38:37.348Z,98859.97
2022-11-30T05:41:04.607Z,98857.63
2022-11-30T05:43:31.269Z,98856.03
2022-11-30T05:46:04.604Z,98861.25
2022-11-30T05:48:31.711Z,98862.41
2022-11-30T05:51:08.512Z,98863.22
2022-11-30T05:53:35.239Z,98866.78
2022-11-30T05:56:04.337Z,98874.50
2022-11-30T05:58:31.175Z,98862.94
2022-11-30T06:00:57.815Z,98869.63
2022-11-30T06:03:24.601Z,98873.72
2022-11-30T06:05:52.535Z,98872.75
2022-11-30T06:08:19.847Z,98868.38
2022-11-30T06:10:46.524Z,98875.13
2022-11-30T06:13:14.008Z,98876.25
2022-11-30T06:15:41.101Z,98869.41
2022-11-30T06:18:09.116Z,98875.94
2022-11-30T06:20:35.756Z,98872.22
2022-11-30T06:23:02.450Z,98874.03
2022-11-30T06:25:29.272Z,98874.66
2022-11-30T06:27:55.927Z,98877.13
2022-11-30T06:30:23.195Z,98875.19
2022-11-30T06:32:51.781Z,98872.44
2022-11-30T06:35:19.369Z,98883.81
2022-11-30T06:37:46.048Z,98878.47
2022-11-30T06:40:13.684Z,98879.28
2022-11-30T06:42:40.402Z,98887.94
2022-11-30T06:45:07.728Z,98892.34
2022-11-30T06:47:34.375Z,98885.31
2022-11-30T06:50:00.968Z,98890.25
2022-11-30T06:52:30.561Z,98888.28
2022-11-30T06:54:57.191Z,98886.53
2022-11-30T06:57:28.435Z,98889.13
2022-11-30T06:59:55.821Z,98887.00
2022-11-30T07:02:22.777Z,98897.16
2022-11-30T07:04:49.814Z,98893.28
2022-11-30T07:07:16.641Z,98894.25
2022-11-30T07:09:43.299Z,98900.94
2022-11-30T07:12:09.920Z,98897.22
2022-11-30T07:14:36.628Z,98893.94
2022-11-30T07:17:04.668Z,98902.44
2022-11-30T07:19:34.222Z,98906.06
2022-11-30T07:22:01.455Z,98909.78
2022-11-30T07:24:43.347Z,98900.34
2022-11-30T07:27:10.134Z,98900.84
2022-11-30T07:29:36.955Z,98902.47
2022-11-30T07:32:03.692Z,98900.69
2022-11-30T07:34:30.357Z,98903.81
2022-11-30T07:36:57.060Z,98905.13
2022-11-30T07:39:24.649Z,98901.88
2022-11-30T07:41:51.293Z,98909.34
2022-11-30T07:44:18.019Z,98906.13
2022-11-30T07:46:44.706Z,98907.47
2022-11-30T07:49:11.392Z,98908.59
2022-11-30T07:51:38.255Z,98903.84
2022-11-30T07:54:05.542Z,98905.50
2022-11-30T07:56:32.194Z,98911.69
2022-11-30T07:59:00.540Z,98917.91
2022-11-30T08:01:29.598Z,98917.91
2022-11-30T08:03:57.262Z,98922.13
2022-11-30T08:06:28.330Z,98929.06
2022-11-30T08:08:57.923Z,98934.91
2022-11-30T08:11:28.223Z,98938.16
2022-11-30T08:13:55.041Z,98940.34
2022-11-30T08:16:24.722Z,98946.31
2022-11-30T08:18:51.875Z,98946.31
2022-11-30T08:21:20.871Z,98944.69
2022-11-30T08:23:50.193Z,98948.47
2022-11-30T08:26:19.183Z,98953.47
2022-11-30T08:28:47.425Z,98946.44
2022-11-30T08:31:19.188Z,98945.44
2022-11-30T08:33:46.786Z,98939.41
2022-11-30T08:36:16.396Z,98940.88
2022-11-30T08:38:44.400Z,98943.34
2022-11-30T08:41:13.099Z,98944.69
2022-11-30T08:43:39.905Z,98947.13
2022-11-30T08:46:34.862Z,98943.75
2022-11-30T08:49:13.078Z,98945.72
2022-11-30T08:52:15.362Z,98943.22
2022-11-30T08:54:29.143Z,98950.63
2022-11-30T08:56:55.794Z,98943.94
2022-11-30T08:59:22.465Z,98956.72
2022-11-30T09:01:49.106Z,98957.69
2022-11-30T09:04:15.743Z,98960.19
2022-11-30T09:06:42.450Z,98965.06
2022-11-30T09:09:09.355Z,98963.13
2022-11-30T09:11:36.064Z,98966.09
2022-11-30T09:14:04.850Z,98966.19
2022-11-30T09:16:31.683Z,98970.81
2022-11-30T09:18:58.290Z,98972.28
2022-11-30T09:21:25.582Z,98966.38
2022-11-30T09:23:53.342Z,98963.47
2022-11-30T09:26:21.506Z,98962.16
2022-11-30T09:28:48.651Z,98971.53
2022-11-30T09:31:18.514Z,98963.47
2022-11-30T09:33:45.231Z,98967.88
2022-11-30T09:36:14.678Z,98969.19
2022-11-30T09:38:42.596Z,98970.13
2022-11-30T09:41:37.767Z,98964.66
2022-11-30T09:44:09.618Z,98967.78
2022-11-30T09:46:47.579Z,98971.69
2022-11-30T09:49:30.570Z,98969.66
2022-11-30T09:52:03.504Z,98972.28
2022-11-30T09:54:36.365Z,98961.16
2022-11-30T09:57:14.228Z,98964.09
2022-11-30T09:59:51.979Z,98955.59
2022-11-30T10:02:18.878Z,98961.72
2022-11-30T10:04:45.984Z,98960.72
2022-11-30T10:07:43.421Z,98960.22
2022-11-30T10:10:40.568Z,98951.41
2022-11-30T10:13:23.323Z,98956.34
2022-11-30T10:16:20.578Z,98945.91
2022-11-30T10:19:22.326Z,98942.97
2022-11-30T10:22:09.879Z,98943.28
2022-11-30T10:25:11.473Z,98941.50
2022-11-30T10:27:51.392Z,98930.22
2022-11-30T10:30:24.070Z,98935.94
2022-11-30T10:32:55.164Z,98937.38
2022-11-30T10:35:28.618Z,98925.00
2022-11-30T10:38:03.562Z,98919.66
2022-11-30T10:40:56.541Z,98926.03
2022-11-30T10:43:49.943Z,98918.00
2022-11-30T10:46:27.462Z,98917.84
2022-11-30T10:49:03.205Z,98909.38
2022-11-30T10:51:33.577Z,98913.31
2022-11-30T10:54:05.337Z,98919.03
2022-11-30T10:56:33.159Z,98925.75
2022-11-30T10:59:22.691Z,98919.81
2022-11-30T11:01:53.816Z,98920.69
2022-11-30T11:04:29.074Z,98920.16
2022-11-30T11:07:19.715Z,98921.47
2022-11-30T11:09:50.684Z,98922.28
2022-11-30T11:12:32.945Z,98919.81
2022-11-30T11:15:10.240Z,98922.09
2022-11-30T11:17:47.671Z,98915.53
2022-11-30T11:23:39.081Z,98922.78
2022-11-30T11:26:08.812Z,98914.94
2022-11-30T11:28:38.354Z,98910.03
2022-11-30T11:31:19.156Z,98913.63
2022-11-30T11:33:53.825Z,98909.56
2022-11-30T11:36:31.511Z,98907.16
2022-11-30T11:39:00.587Z,98913.22
2022-11-30T11:41:34.273Z,98911.75
2022-11-30T11:44:07.867Z,98907.66
2022-11-30T11:46:38.323Z,98904.69
2022-11-30T11:49:18.362Z,98904.53
2022-11-30T11:51:45.791Z,98904.53
2022-11-30T11:54:30.611Z,98906.53
2022-11-30T11:56:58.874Z,98900.31
2022-11-30T12:00:00.788Z,98902.94
2022-11-30T12:02:38.300Z,98896.75
2022-11-30T12:05:27.707Z,98902.28
2022-11-30T12:08:12.743Z,98899.03
2022-11-30T12:10:52.309Z,98902.78
2022-11-30T12:13:22.603Z,98903.28
2022-11-30T12:16:14.704Z,98899.19
2022-11-30T12:18:52.955Z,98896.59
2022-11-30T12:21:28.268Z,98895.78
2022-11-30T12:24:05.149Z,98889.09
2022-11-30T12:26:44.682Z,98887.78
2022-11-30T12:29:39.573Z,98890.88
2022-11-30T12:32:35.431Z,98902.66
2022-11-30T12:35:22.616Z,98894.31
2022-11-30T12:38:05.741Z,98890.06
2022-11-30T12:40:40.906Z,98895.28
2022-11-30T12:43:07.550Z,98897.59
2022-11-30T12:45:40.278Z,98879.09
2022-11-30T12:48:38.676Z,98880.91
2022-11-30T12:51:05.630Z,98880.09
2022-11-30T12:53:44.877Z,98880.09
2022-11-30T12:56:30.129Z,98874.53
2022-11-30T12:59:04.895Z,98880.09
2022-11-30T13:01:54.731Z,98872.72
2022-11-30T13:04:27.430Z,98868.16
2022-11-30T13:07:00.416Z,98862.91
2022-11-30T13:09:33.711Z,98864.72
2022-11-30T13:12:11.170Z,98861.28
2022-11-30T13:14:38.910Z,98857.38
2022-11-30T13:17:11.396Z,98863.06
2022-11-30T13:19:55.529Z,98860.63
2022-11-30T13:22:49.143Z,98860.47
2022-11-30T13:26:06.334Z,98857.50
2022-11-30T13:28:25.773Z,98862.09
2022-11-30T13:31:07.751Z,98863.72
2022-11-30T13:33:34.782Z,98867.84
2022-11-30T13:36:20.999Z,98864.34
2022-11-30T13:39:06.390Z,98866.53
2022-11-30T13:41:38.099Z,98875.50
2022-11-30T13:44:31.977Z,98873.22
2022-11-30T13:47:30.542Z,98874.53
2022-11-30T13:53:11.126Z,98879.44
2022-11-30T13:55:50.868Z,98873.38
2022-11-30T13:58:19.683Z,98875.19
2022-11-30T14:01:03.349Z,98877.47
2022-11-30T14:06:49.999Z,98869.63
2022-11-30T14:10:10.905Z,98866.34
2022-11-30T14:15:45.422Z,98866.34
2022-11-30T14:18:31.805Z,98862.28
2022-11-30T14:21:03.119Z,98866.03
2022-11-30T14:23:59.662Z,98863.75
2022-11-30T14:26:44.865Z,98861.91
2022-11-30T14:29:44.061Z,98854.41
2022-11-30T14:32:33.836Z,98856.53
2022-11-30T14:35:08.019Z,98850.59
2022-11-30T14:37:43.077Z,98853.41
2022-11-30T14:40:18.978Z,98847.03
2022-11-30T14:42:51.056Z,98855.41
2022-11-30T14:45:27.862Z,98859.81
2022-11-30T14:48:06.566Z,98857.19
2022-11-30T14:50:34.123Z,98849.00
2022-11-30T14:53:31.307Z,98858.03
2022-11-30T14:56:02.186Z,98856.06
2022-11-30T14:58:44.773Z,98855.72
2022-11-30T15:01:20.635Z,98858.84
2022-11-30T15:03:49.704Z,98853.59
2022-11-30T15:06:18.757Z,98855.88
2022-11-30T15:08:51.874Z,98860.63
2022-11-30T15:11:19.638Z,98861.28
2022-11-30T15:13:48.982Z,98867.00
2022-11-30T15:16:29.215Z,98858.53
2022-11-30T15:18:57.924Z,98860.47
2022-11-30T15:21:29.179Z,98856.22
2022-11-30T15:23:58.012Z,98859.16
2022-11-30T15:26:34.111Z,98865.88
2022-11-30T15:29:05.823Z,98858.19
2022-11-30T15:31:36.391Z,98864.56
2022-11-30T15:34:04.576Z,98871.91
2022-11-30T15:36:38.137Z,98872.25
2022-11-30T15:39:08.260Z,98872.25
2022-11-30T15:41:36.259Z,98865.88
2022-11-30T15:44:02.871Z,98871.44
2022-11-30T15:46:44.468Z,98862.13
2022-11-30T15:49:12.868Z,98856.53
2022-11-30T15:51:43.404Z,98859.97
2022-11-30T15:54:10.082Z,98858.03
2022-11-30T15:56:36.879Z,98861.63
2022-11-30T15:59:03.625Z,98851.78
2022-11-30T16:01:32.087Z,98856.38
2022-11-30T16:04:02.624Z,98857.84
2022-11-30T16:06:32.670Z,98861.78
2022-11-30T16:09:05.740Z,98860.13
2022-11-30T16:11:33.734Z,98865.38
2022-11-30T16:14:00.359Z,98861.09
2022-11-30T16:16:30.635Z,98870.94
2022-11-30T16:18:57.322Z,98869.13
2022-11-30T16:21:24.142Z,98871.09
2022-11-30T16:23:50.792Z,98862.41
2022-11-30T16:29:05.671Z,98874.03
2022-11-30T16:31:32.471Z,98871.41
2022-11-30T16:33:59.278Z,98862.06
2022-11-30T16:36:26.010Z,98857.81
2022-11-30T16:38:53.725Z,98860.75
2022-11-30T16:41:24.310Z,98859.28
2022-11-30T16:43:54.480Z,98865.31
2022-11-30T16:46:25.624Z,98863.53
2022-11-30T16:48:52.937Z,98865.31
2022-11-30T16:51:23.953Z,98860.91
2022-11-30T16:53:50.932Z,98856.00
2022-11-30T16:56:17.806Z,98863.66
2022-11-30T16:58:46.280Z,98871.69
2022-11-30T17:01:21.159Z,98869.06
2022-11-30T17:03:50.953Z,98870.53
2022-11-30T17:06:20.767Z,98868.25
2022-11-30T17:08:48.780Z,98876.75
2022-11-30T17:11:19.923Z,98869.75
2022-11-30T17:13:46.876Z,98871.03
2022-11-30T17:16:18.024Z,98872.81
2022-11-30T17:18:44.714Z,98875.59
2022-11-30T17:21:15.964Z,98867.25
2022-11-30T17:23:43.587Z,98865.13
2022-11-30T17:26:11.884Z,98862.69
2022-11-30T17:28:39.561Z,98866.28
2022-11-30T17:31:06.336Z,98873.94
2022-11-30T17:33:34.445Z,98867.25
2022-11-30T17:36:05.447Z,98863.66
2022-11-30T17:38:33.213Z,98862.50
2022-11-30T17:41:00.007Z,98865.28
2022-11-30T17:43:26.643Z,98866.59
2022-11-30T17:45:56.616Z,98870.53
2022-11-30T17:48:26.448Z,98869.06
2022-11-30T17:50:53.147Z,98866.94
2022-11-30T17:53:19.793Z,98865.31
2022-11-30T17:55:49.530Z,98872.97
2022-11-30T17:58:16.482Z,98866.63
2022-11-30T18:00:43.109Z,98871.69
2022-11-30T18:03:09.832Z,98871.50
2022-11-30T18:05:36.420Z,98866.97
2022-11-30T18:08:03.329Z,98867.63
2022-11-30T18:10:30.058Z,98874.81
2022-11-30T18:12:57.823Z,98877.41
2022-11-30T18:15:24.398Z,98876.88
2022-11-30T18:17:51.215Z,98877.22
2022-11-30T18:20:18.811Z,98871.50
2022-11-30T18:22:46.552Z,98880.66
2022-11-30T18:25:15.560Z,98876.91
2022-11-30T18:27:42.219Z,98874.13
2022-11-30T18:30:10.383Z,98880.84
2022-11-30T18:32:37.273Z,98889.00
2022-11-30T18:35:04.660Z,98884.28
2022-11-30T18:37:33.342Z,98890.66
2022-11-30T18:40:01.013Z,98885.72
2022-11-30T18:42:27.791Z,98892.41
2022-11-30T18:44:54.472Z,98894.84
2022-11-30T18:47:21.353Z,98895.34
2022-11-30T18:49:47.973Z,98899.44
2022-11-30T18:52:14.830Z,98908.25
2022-11-30T18:54:41.542Z,98912.34
2022-11-30T18:57:08.160Z,98911.63
2022-11-30T18:59:34.817Z,98904.16
2022-11-30T19:02:02.598Z,98900.41
2022-11-30T19:04:29.327Z,98892.41
2022-11-30T19:06:55.941Z,98894.50
2022-11-30T19:09:23.969Z,98904.94
2022-11-30T19:11:50.685Z,98895.00
2022-11-30T19:14:17.748Z,98898.13
2022-11-30T19:16:45.061Z,98897.78
2022-11-30T19:19:16.597Z,98897.47
2022-11-30T19:21:47.822Z,98895.34
2022-11-30T19:24:16.112Z,98902.88
2022-11-30T19:26:42.867Z,98897.66
2022-11-30T19:29:11.355Z,98894.72
2022-11-30T19:31:38.023Z,98899.13
2022-11-30T19:34:12.473Z,98899.78
2022-11-30T19:36:40.503Z,98897.03
2022-11-30T19:39:07.233Z,98900.59
2022-11-30T19:41:33.843Z,98907.47
2022-11-30T19:44:03.933Z,98905.66
2022-11-30T19:46:32.923Z,98904.88
2022-11-30T19:49:01.516Z,98905.50
2022-11-30T19:51:29.657Z,98903.88
2022-11-30T19:53:57.615Z,98903.88
2022-11-30T19:56:25.390Z,98908.97
2022-11-30T19:58:52.504Z,98908.28
2022-11-30T20:01:23.095Z,98916.19
2022-11-30T20:03:51.577Z,98909.28
2022-11-30T20:06:19.234Z,98910.25
2022-11-30T20:08:46.149Z,98915.31
2022-11-30T20:11:15.887Z,98909.13
2022-11-30T20:13:44.314Z,98910.72
2022-11-30T20:16:17.752Z,98910.09
2022-11-30T20:18:46.458Z,98918.75
2022-11-30T20:21:18.351Z,98908.28
2022-11-30T20:23:47.258Z,98910.56
2022-11-30T20:26:18.379Z,98903.53
2022-11-30T20:28:46.390Z,98911.06
2022-11-30T20:31:14.889Z,98910.91
2022-11-30T20:33:42.157Z,98907.47
2022-11-30T20:36:10.535Z,98908.78
2022-11-30T20:38:38.011Z,98910.09
2022-11-30T20:41:05.443Z,98911.72
2022-11-30T20:43:32.044Z,98910.72
2022-11-30T20:45:58.759Z,98908.28
2022-11-30T20:48:25.388Z,98912.38
2022-11-30T20:51:22.041Z,98910.09
2022-11-30T20:53:39.306Z,98909.13
2022-11-30T20:56:06.647Z,98908.47
2022-11-30T20:58:33.531Z,98912.09
2022-11-30T21:01:00.585Z,98906.69
2022-11-30T21:03:28.154Z,98902.09
2022-11-30T21:05:54.765Z,98904.56
2022-11-30T21:08:21.454Z,98901.63
2022-11-30T21:10:48.079Z,98903.91
2022-11-30T21:13:15.224Z,98906.38
2022-11-30T21:15:42.328Z,98899.34
2022-11-30T21:18:09.041Z,98901.31
2022-11-30T21:20:35.636Z,98891.00
2022-11-30T21:23:02.263Z,98896.69
2022-11-30T21:25:29.117Z,98895.38
2022-11-30T21:27:56.265Z,98890.97
2022-11-30T21:30:22.895Z,98888.84
2022-11-30T21:32:49.547Z,98898.00
2022-11-30T21:35:16.272Z,98887.50
2022-11-30T21:37:42.913Z,98896.16
2022-11-30T21:40:10.905Z,98895.63
2022-11-30T21:42:37.564Z,98890.72
2022-11-30T21:45:04.438Z,98897.28
2022-11-30T21:47:34.340Z,98890.91
2022-11-30T21:50:04.187Z,98899.47
2022-11-30T21:52:30.891Z,98890.59
2022-11-30T21:54:57.539Z,98902.84
2022-11-30T21:57:24.172Z,98906.56
2022-11-30T21:59:50.972Z,98912.25
2022-11-30T22:02:17.706Z,98905.56
2022-11-30T22:04:44.353Z,98918.16
2022-11-30T22:07:13.315Z,98911.00
2022-11-30T22:09:40.166Z,98908.38
2022-11-30T22:12:07.038Z,98913.28
2022-11-30T22:14:36.204Z,98912.31
2022-11-30T22:17:02.837Z,98906.25
2022-11-30T22:19:29.502Z,98914.94
2022-11-30T22:21:56.125Z,98916.34
2022-11-30T22:24:22.898Z,98908.66
2022-11-30T22:26:49.510Z,98911.44
2022-11-30T22:29:19.462Z,98910.94
2022-11-30T22:31:48.139Z,98913.38
2022-11-30T22:34:15.431Z,98920.38
2022-11-30T22:36:43.722Z,98919.88
2022-11-30T22:39:13.125Z,98916.91
2022-11-30T22:41:41.360Z,98927.78
2022-11-30T22:44:09.907Z,98927.78
2022-11-30T22:46:37.639Z,98925.38
2022-11-30T22:49:07.310Z,98918.31
2022-11-30T22:51:35.875Z,98918.59
2022-11-30T22:54:02.896Z,98914.38
2022-11-30T22:56:32.555Z,98913.25
2022-11-30T22:59:01.039Z,98910.06
2022-11-30T23:01:29.088Z,98909.25
2022-11-30T23:03:57.479Z,98893.88
2022-11-30T23:06:25.079Z,98903.16
2022-11-30T23:08:52.577Z,98902.06
2022-11-30T23:11:22.608Z,98897.38
2022-11-30T23:13:49.586Z,98896.91
2022-11-30T23:16:16.851Z,98891.84
2022-11-30T23:18:48.789Z,98891.22
2022-11-30T23:21:16.747Z,98891.44
2022-11-30T23:23:44.179Z,98891.13
2022-11-30T23:26:14.216Z,98891.28
2022-11-30T23:28:42.869Z,98894.63
2022-11-30T23:31:32.168Z,98890.91
2022-11-30T23:34:01.064Z,98884.03
2022-11-30T23:36:28.587Z,98881.75
2022-11-30T23:38:59.588Z,98884.34
2022-11-30T23:41:26.496Z,98879.13
2022-11-30T23:43:53.836Z,98881.53
2022-11-30T23:46:21.655Z,98873.75
2022-11-30T23:48:48.602Z,98874.63
2022-11-30T23:51:15.589Z,98877.06
2022-11-30T23:53:42.496Z,98868.38
2022-11-30T23:56:13.188Z,98872.53
2022-11-30T23:58:39.811Z,98861.00
